This is the latest recevied weather packets stored in our database for station/object K8JMX-13. If no packets are shown the sender has not sent any weather packets the latest 10 day(s).
| Time | Temp. | Humidity | Pressure | Rain* | Wind** | Luminosity | Snow |
|---|---|---|---|---|---|---|---|
| 1777599332 | 8.33° C | 63% | 1014 hPa | 0 mm | - | 0 W/m² | - |
| 1777599029 | 8.89° C | 63% | 1013.8 hPa | 0 mm | - | 0 W/m² | - |
| 1777598726 | 8.89° C | 63% | 1013.9 hPa | 0 mm | - | 0 W/m² | - |
| 1777598422 | 8.89° C | 63% | 1013.8 hPa | 0 mm | - | 0 W/m² | - |
| 1777598121 | 8.89° C | 61% | 1013.7 hPa | 0 mm | - | 0 W/m² | - |
| 1777597815 | 8.89° C | 61% | 1013.9 hPa | 0 mm | - | 0 W/m² | - |
| 1777597509 | 9.44° C | 60% | 1013.6 hPa | 0 mm | - | 0 W/m² | - |
| 1777597206 | 10° C | 59% | 1013.4 hPa | 0 mm | - | 0 W/m² | - |
| 1777596901 | 10° C | 58% | 1013.6 hPa | 0 mm | - | 0 W/m² | - |
| 1777596598 | 10.56° C | 57% | 1013.5 hPa | 0 mm | - | 0 W/m² | - |
| 1777596294 | 11.11° C | 55% | 1013.5 hPa | 0 mm | - | 0 W/m² | - |
| 1777595992 | 11.11° C | 54% | 1013.4 hPa | 0 mm | - | 0 W/m² | - |
| 1777595680 | 11.67° C | 51% | 1013.6 hPa | 0 mm | - | 1 W/m² | - |
| 1777595376 | 11.67° C | 51% | 1013.4 hPa | 0 mm | - | 2 W/m² | - |
| 1777595074 | 12.22° C | 49% | 1013.6 hPa | 0 mm | - | 3 W/m² | - |
| 1777594770 | 12.22° C | 48% | 1013.5 hPa | 0 mm | - | 5 W/m² | - |
| 1777594467 | 12.78° C | 47% | 1013.6 hPa | 0 mm | - | 8 W/m² | - |
| 1777594161 | 13.33° C | 45% | 1013.5 hPa | 0 mm | - | 11 W/m² | - |
| 1777593859 | 13.33° C | 45% | 1013.5 hPa | 0 mm | - | 14 W/m² | - |
| 1777593554 | 13.33° C | 46% | 1013.5 hPa | 0 mm | - | 18 W/m² | - |
| 1777593249 | 13.33° C | 45% | 1013.5 hPa | 0 mm | - | 23 W/m² | - |
| 1777592948 | 13.33° C | 45% | 1013.5 hPa | 0 mm | - | 30 W/m² | - |
| 1777592643 | 13.89° C | 43% | 1013.5 hPa | 0 mm | - | 38 W/m² | - |
| 1777592340 | 13.89° C | 43% | 1013.5 hPa | 0 mm | - | 44 W/m² | - |
| 1777592035 | 12.78° C | 43% | 1013.4 hPa | 0 mm | - | 58 W/m² | - |
* Rain latest hour (hover to see other rain measurements)
** Current wind speed in m/s (hover to see current wind gust speed)